AAL1A KSAN-KSJC
Flight info
| Callsign | AAL1A |
|---|---|
| Flight time | 1h 1m |
| Altitude | 36000 |
| Route | PADRZ2 IKAYE TESEA SCTRR TROXX SILCN6 |
| Aircraft | B738/M-VGDW/C |
Departure
| Time | 2026-04-26 16:43 |
|---|---|
| Airport | San Diego International Airport (KSAN) |
Arrival
| Time | 2026-04-26 17:44 |
|---|---|
| Airport | Norman Y. Mineta San Jose International Airport (KSJC) |
| Time | Latitude | Longitude | Altitude | Speed | Heading |
|---|---|---|---|---|---|
| 2026-04-26 16:06 | 32.73412 | -117.20184 | 20 ft | 0 kts | 167° |
| 2026-04-26 16:32 | 32.73417 | -117.20185 | 20 ft | 2 kts | 167° |
| 2026-04-26 16:32 | 32.73432 | -117.20189 | 20 ft | 2 kts | 167° |
| 2026-04-26 16:33 | 32.73441 | -117.20191 | 20 ft | 2 kts | 162° |
| 2026-04-26 16:33 | 32.73453 | -117.20201 | 20 ft | 2 kts | 130° |
| 2026-04-26 16:33 | 32.73461 | -117.20216 | 20 ft | 2 kts | 104° |
| 2026-04-26 16:33 | 32.73461 | -117.20234 | 20 ft | 2 kts | 78° |
| 2026-04-26 16:34 | 32.73460 | -117.20242 | 20 ft | 2 kts | 67° |
| 2026-04-26 16:34 | 32.73452 | -117.20256 | 20 ft | 2 kts | 41° |
| 2026-04-26 16:34 | 32.73440 | -117.20264 | 20 ft | 0 kts | 18° |
| 2026-04-26 16:34 | 32.73434 | -117.20266 | 20 ft | 1 kts | 13° |
| 2026-04-26 16:35 | 32.73432 | -117.20267 | 20 ft | 0 kts | 14° |
| 2026-04-26 16:35 | 32.73433 | -117.20267 | 20 ft | 0 kts | 14° |
| 2026-04-26 16:36 | 32.73447 | -117.20262 | 20 ft | 8 kts | 14° |
| 2026-04-26 16:37 | 32.73517 | -117.20236 | 20 ft | 10 kts | 26° |
| 2026-04-26 16:37 | 32.73542 | -117.20166 | 20 ft | 9 kts | 99° |
| 2026-04-26 16:37 | 32.73517 | -117.20055 | 21 ft | 16 kts | 105° |
| 2026-04-26 16:37 | 32.73496 | -117.19968 | 21 ft | 16 kts | 108° |
| 2026-04-26 16:38 | 32.73459 | -117.19805 | 21 ft | 14 kts | 104° |
| 2026-04-26 16:38 | 32.73424 | -117.19675 | 22 ft | 21 kts | 106° |
| 2026-04-26 16:38 | 32.73383 | -117.19501 | 22 ft | 21 kts | 106° |
| 2026-04-26 16:38 | 32.73343 | -117.19334 | 22 ft | 20 kts | 105° |
| 2026-04-26 16:39 | 32.73301 | -117.19157 | 23 ft | 25 kts | 107° |
| 2026-04-26 16:39 | 32.73245 | -117.18928 | 22 ft | 30 kts | 107° |
| 2026-04-26 16:39 | 32.73185 | -117.18687 | 23 ft | 29 kts | 107° |
| 2026-04-26 16:39 | 32.73130 | -117.18452 | 23 ft | 28 kts | 109° |
| 2026-04-26 16:40 | 32.73075 | -117.18229 | 23 ft | 28 kts | 105° |
| 2026-04-26 16:40 | 32.73022 | -117.18010 | 23 ft | 27 kts | 106° |
| 2026-04-26 16:40 | 32.72969 | -117.17799 | 24 ft | 20 kts | 104° |
| 2026-04-26 16:40 | 32.72952 | -117.17680 | 24 ft | 12 kts | 80° |
| 2026-04-26 16:41 | 32.73000 | -117.17600 | 25 ft | 10 kts | 7° |
| 2026-04-26 16:41 | 32.73035 | -117.17648 | 25 ft | 6 kts | 285° |
| 2026-04-26 16:41 | 32.73035 | -117.17650 | 25 ft | 0 kts | 285° |
| 2026-04-26 16:42 | 32.73035 | -117.17651 | 25 ft | 3 kts | 285° |
| 2026-04-26 16:42 | 32.73108 | -117.17950 | 24 ft | 70 kts | 286° |
| 2026-04-26 16:42 | 32.73300 | -117.18741 | 23 ft | 126 kts | 286° |
| 2026-04-26 16:42 | 32.73586 | -117.19926 | 97 ft | 163 kts | 285° |
| 2026-04-26 16:43 | 32.73882 | -117.21149 | 720 ft | 156 kts | 287° |
| 2026-04-26 16:43 | 32.74389 | -117.22317 | 1235 ft | 162 kts | 301° |
| 2026-04-26 16:43 | 32.75053 | -117.23402 | 1726 ft | 169 kts | 306° |
| 2026-04-26 16:43 | 32.75804 | -117.24560 | 2076 ft | 183 kts | 304° |
| 2026-04-26 16:44 | 32.76558 | -117.25828 | 2496 ft | 193 kts | 302° |
| 2026-04-26 16:44 | 32.77313 | -117.27169 | 3003 ft | 201 kts | 302° |
| 2026-04-26 16:44 | 32.78083 | -117.28564 | 3594 ft | 203 kts | 302° |
| 2026-04-26 16:44 | 32.78846 | -117.29971 | 4049 ft | 214 kts | 301° |
| 2026-04-26 16:45 | 32.79724 | -117.31541 | 4332 ft | 234 kts | 303° |
| 2026-04-26 16:45 | 32.80712 | -117.33129 | 4814 ft | 245 kts | 306° |
| 2026-04-26 16:45 | 32.81775 | -117.34744 | 5376 ft | 252 kts | 306° |
| 2026-04-26 16:45 | 32.82853 | -117.36385 | 6036 ft | 255 kts | 306° |
| 2026-04-26 16:46 | 32.83923 | -117.38039 | 6801 ft | 254 kts | 306° |
| 2026-04-26 16:46 | 32.85006 | -117.39721 | 7385 ft | 261 kts | 306° |
| 2026-04-26 16:46 | 32.86096 | -117.41411 | 8183 ft | 259 kts | 306° |
| 2026-04-26 16:46 | 32.87195 | -117.43111 | 8929 ft | 260 kts | 306° |
| 2026-04-26 16:47 | 32.88308 | -117.44825 | 9538 ft | 266 kts | 306° |
| 2026-04-26 16:47 | 32.89430 | -117.46551 | 10284 ft | 267 kts | 306° |
| 2026-04-26 16:47 | 32.90591 | -117.48348 | 10693 ft | 281 kts | 306° |
| 2026-04-26 16:47 | 32.91804 | -117.50231 | 11119 ft | 295 kts | 306° |
| 2026-04-26 16:48 | 32.93091 | -117.52235 | 11547 ft | 309 kts | 305° |
| 2026-04-26 16:48 | 32.94423 | -117.54309 | 11955 ft | 323 kts | 305° |
| 2026-04-26 16:48 | 32.95789 | -117.56430 | 12658 ft | 327 kts | 305° |
| 2026-04-26 16:48 | 32.97187 | -117.58601 | 13368 ft | 331 kts | 304° |
| 2026-04-26 16:49 | 32.98582 | -117.60770 | 14128 ft | 333 kts | 304° |
| 2026-04-26 16:49 | 32.99987 | -117.62959 | 14867 ft | 337 kts | 304° |
| 2026-04-26 16:49 | 33.01407 | -117.65178 | 15605 ft | 340 kts | 303° |
| 2026-04-26 16:49 | 33.02838 | -117.67416 | 16300 ft | 344 kts | 303° |
| 2026-04-26 16:50 | 33.04296 | -117.69698 | 17029 ft | 347 kts | 303° |
| 2026-04-26 16:50 | 33.05794 | -117.71949 | 17713 ft | 351 kts | 306° |
| 2026-04-26 16:50 | 33.07460 | -117.74089 | 18349 ft | 358 kts | 310° |
| 2026-04-26 16:50 | 33.09296 | -117.76102 | 19056 ft | 362 kts | 313° |
| 2026-04-26 16:51 | 33.11223 | -117.78059 | 19693 ft | 366 kts | 314° |
| 2026-04-26 16:51 | 33.13177 | -117.80001 | 20350 ft | 368 kts | 314° |
| 2026-04-26 16:51 | 33.15145 | -117.81953 | 20954 ft | 372 kts | 314° |
| 2026-04-26 16:51 | 33.17149 | -117.83955 | 21545 ft | 375 kts | 314° |
| 2026-04-26 16:52 | 33.19145 | -117.85965 | 22120 ft | 378 kts | 313° |
| 2026-04-26 16:52 | 33.19803 | -117.86639 | 22314 ft | 378 kts | 312° |
| 2026-04-26 16:52 | 33.23002 | -117.90241 | 23226 ft | 381 kts | 309° |
| 2026-04-26 16:52 | 33.24862 | -117.92488 | 23740 ft | 384 kts | 308° |
| 2026-04-26 16:53 | 33.26730 | -117.94772 | 24262 ft | 387 kts | 308° |
| 2026-04-26 16:53 | 33.28607 | -117.97066 | 24822 ft | 388 kts | 307° |
| 2026-04-26 16:53 | 33.30499 | -117.99360 | 25401 ft | 389 kts | 307° |
| 2026-04-26 16:53 | 33.32407 | -118.01668 | 25810 ft | 394 kts | 308° |
| 2026-04-26 16:54 | 33.34359 | -118.04020 | 26361 ft | 395 kts | 307° |
| 2026-04-26 16:54 | 33.36293 | -118.06342 | 26870 ft | 397 kts | 307° |
| 2026-04-26 16:54 | 33.38239 | -118.08676 | 27360 ft | 399 kts | 307° |
| 2026-04-26 16:54 | 33.40205 | -118.11035 | 27727 ft | 403 kts | 307° |
| 2026-04-26 16:55 | 33.42183 | -118.13408 | 28200 ft | 405 kts | 307° |
| 2026-04-26 16:55 | 33.44169 | -118.15791 | 28600 ft | 408 kts | 307° |
| 2026-04-26 16:55 | 33.46174 | -118.18198 | 29059 ft | 409 kts | 307° |
| 2026-04-26 16:55 | 33.48185 | -118.20612 | 29488 ft | 411 kts | 307° |
| 2026-04-26 16:56 | 33.52254 | -118.25507 | 30213 ft | 417 kts | 307° |
| 2026-04-26 16:56 | 33.54309 | -118.27982 | 30517 ft | 420 kts | 307° |
| 2026-04-26 16:56 | 33.56364 | -118.30455 | 30975 ft | 419 kts | 307° |
| 2026-04-26 16:57 | 33.58409 | -118.32912 | 31511 ft | 415 kts | 307° |
| 2026-04-26 16:57 | 33.60432 | -118.35346 | 31959 ft | 414 kts | 307° |
| 2026-04-26 16:57 | 33.64485 | -118.40239 | 32725 ft | 413 kts | 307° |
| 2026-04-26 16:58 | 33.66522 | -118.42698 | 33104 ft | 413 kts | 306° |
| 2026-04-26 16:58 | 33.67181 | -118.43496 | 33203 ft | 413 kts | 306° |
| 2026-04-26 16:58 | 33.72566 | -118.50017 | 34128 ft | 411 kts | 306° |
| 2026-04-26 16:59 | 33.74553 | -118.52429 | 34400 ft | 411 kts | 306° |
| 2026-04-26 16:59 | 33.78592 | -118.57334 | 34847 ft | 413 kts | 306° |
| 2026-04-26 17:00 | 33.82608 | -118.62218 | 35317 ft | 413 kts | 307° |
| 2026-04-26 17:00 | 33.86651 | -118.67142 | 35921 ft | 411 kts | 306° |
| 2026-04-26 17:00 | 33.88667 | -118.69601 | 35997 ft | 414 kts | 306° |
| 2026-04-26 17:01 | 33.92713 | -118.74542 | 35997 ft | 414 kts | 306° |
| 2026-04-26 17:01 | 33.96744 | -118.79466 | 36092 ft | 417 kts | 306° |
| 2026-04-26 17:02 | 33.98771 | -118.81944 | 35867 ft | 409 kts | 307° |
| 2026-04-26 17:02 | 34.00743 | -118.84347 | 35989 ft | 409 kts | 306° |
| 2026-04-26 17:02 | 34.04788 | -118.89318 | 36088 ft | 424 kts | 307° |
| 2026-04-26 17:03 | 34.06874 | -118.91889 | 35744 ft | 427 kts | 307° |
| 2026-04-26 17:03 | 34.08951 | -118.94437 | 35965 ft | 426 kts | 307° |
| 2026-04-26 17:03 | 34.13143 | -118.99585 | 35984 ft | 433 kts | 307° |
| 2026-04-26 17:04 | 34.17359 | -119.04710 | 36099 ft | 434 kts | 308° |
| 2026-04-26 17:04 | 34.21634 | -119.09779 | 35996 ft | 429 kts | 308° |
| 2026-04-26 17:05 | 34.25915 | -119.14858 | 35991 ft | 434 kts | 308° |
| 2026-04-26 17:05 | 34.30193 | -119.19944 | 35992 ft | 430 kts | 308° |
| 2026-04-26 17:06 | 34.34465 | -119.25043 | 35995 ft | 432 kts | 308° |
| 2026-04-26 17:06 | 34.38734 | -119.30160 | 35988 ft | 434 kts | 309° |
| 2026-04-26 17:07 | 34.43037 | -119.35316 | 35980 ft | 434 kts | 308° |
| 2026-04-26 17:07 | 34.47300 | -119.40438 | 35970 ft | 433 kts | 309° |
| 2026-04-26 17:08 | 34.51584 | -119.45595 | 35967 ft | 434 kts | 309° |
| 2026-04-26 17:08 | 34.55840 | -119.50726 | 35963 ft | 434 kts | 309° |
| 2026-04-26 17:09 | 34.59428 | -119.55061 | 35959 ft | 435 kts | 309° |
| 2026-04-26 17:09 | 34.64420 | -119.61101 | 35957 ft | 436 kts | 309° |
| 2026-04-26 17:10 | 34.68701 | -119.66284 | 35954 ft | 437 kts | 309° |
| 2026-04-26 17:10 | 34.72986 | -119.71478 | 35948 ft | 436 kts | 309° |
| 2026-04-26 17:11 | 34.77287 | -119.76701 | 35954 ft | 437 kts | 309° |
| 2026-04-26 17:11 | 34.81580 | -119.81927 | 35949 ft | 438 kts | 309° |
| 2026-04-26 17:12 | 34.88006 | -119.89771 | 35945 ft | 442 kts | 309° |
| 2026-04-26 17:13 | 34.94516 | -119.97732 | 35943 ft | 443 kts | 309° |
| 2026-04-26 17:14 | 35.01015 | -120.05686 | 35934 ft | 442 kts | 309° |
| 2026-04-26 17:14 | 35.07509 | -120.13660 | 35965 ft | 442 kts | 310° |
| 2026-04-26 17:15 | 35.14002 | -120.21657 | 35974 ft | 443 kts | 310° |
| 2026-04-26 17:16 | 35.18519 | -120.26849 | 35972 ft | 448 kts | 315° |
| 2026-04-26 17:16 | 35.20922 | -120.29212 | 36177 ft | 450 kts | 317° |
| 2026-04-26 17:16 | 35.23417 | -120.31531 | 36001 ft | 447 kts | 318° |
| 2026-04-26 17:17 | 35.28387 | -120.36002 | 35981 ft | 446 kts | 319° |
| 2026-04-26 17:17 | 35.33401 | -120.40511 | 35978 ft | 447 kts | 319° |
| 2026-04-26 17:18 | 35.38395 | -120.45044 | 35983 ft | 446 kts | 319° |
| 2026-04-26 17:18 | 35.43370 | -120.49596 | 35976 ft | 446 kts | 319° |
| 2026-04-26 17:19 | 35.50785 | -120.56418 | 35991 ft | 447 kts | 319° |
| 2026-04-26 17:19 | 35.55838 | -120.60902 | 35993 ft | 448 kts | 322° |
| 2026-04-26 17:20 | 35.59332 | -120.63670 | 35998 ft | 449 kts | 323° |
| 2026-04-26 17:20 | 35.66386 | -120.69066 | 36004 ft | 449 kts | 323° |
| 2026-04-26 17:21 | 35.71637 | -120.73106 | 35704 ft | 438 kts | 323° |
| 2026-04-26 17:21 | 35.74200 | -120.75095 | 35258 ft | 436 kts | 323° |
| 2026-04-26 17:21 | 35.76755 | -120.77090 | 34659 ft | 438 kts | 323° |
| 2026-04-26 17:22 | 35.79327 | -120.79111 | 33961 ft | 441 kts | 323° |
| 2026-04-26 17:22 | 35.81893 | -120.81133 | 33145 ft | 446 kts | 324° |
| 2026-04-26 17:22 | 35.84503 | -120.83195 | 32327 ft | 449 kts | 324° |
| 2026-04-26 17:22 | 35.87123 | -120.85265 | 31544 ft | 451 kts | 324° |
| 2026-04-26 17:23 | 35.89753 | -120.87344 | 30994 ft | 445 kts | 324° |
| 2026-04-26 17:23 | 35.92315 | -120.89368 | 30438 ft | 430 kts | 325° |
| 2026-04-26 17:23 | 35.94769 | -120.91305 | 29888 ft | 416 kts | 325° |
| 2026-04-26 17:23 | 35.97175 | -120.93205 | 29383 ft | 402 kts | 325° |
| 2026-04-26 17:24 | 35.99506 | -120.95052 | 28894 ft | 396 kts | 324° |
| 2026-04-26 17:24 | 36.01801 | -120.96905 | 28465 ft | 400 kts | 323° |
| 2026-04-26 17:24 | 36.04075 | -120.98925 | 27946 ft | 401 kts | 321° |
| 2026-04-26 17:24 | 36.06274 | -121.01014 | 27431 ft | 390 kts | 320° |
| 2026-04-26 17:25 | 36.08343 | -121.03034 | 26955 ft | 379 kts | 319° |
| 2026-04-26 17:25 | 36.10399 | -121.05055 | 26481 ft | 378 kts | 320° |
| 2026-04-26 17:25 | 36.12495 | -121.07112 | 25985 ft | 388 kts | 320° |
| 2026-04-26 17:25 | 36.14611 | -121.09169 | 25475 ft | 383 kts | 320° |
| 2026-04-26 17:26 | 36.16653 | -121.11138 | 24983 ft | 371 kts | 320° |
| 2026-04-26 17:26 | 36.18672 | -121.13074 | 24513 ft | 363 kts | 320° |
| 2026-04-26 17:26 | 36.20666 | -121.14985 | 24040 ft | 368 kts | 320° |
| 2026-04-26 17:26 | 36.22714 | -121.16948 | 23548 ft | 375 kts | 320° |
| 2026-04-26 17:27 | 36.24765 | -121.18911 | 23093 ft | 372 kts | 321° |
| 2026-04-26 17:27 | 36.26805 | -121.20862 | 22550 ft | 369 kts | 321° |
| 2026-04-26 17:27 | 36.28822 | -121.22791 | 22038 ft | 366 kts | 320° |
| 2026-04-26 17:27 | 36.30814 | -121.24696 | 21548 ft | 362 kts | 320° |
| 2026-04-26 17:28 | 36.32816 | -121.26611 | 21056 ft | 358 kts | 320° |
| 2026-04-26 17:28 | 36.34768 | -121.28482 | 20572 ft | 355 kts | 320° |
| 2026-04-26 17:28 | 36.36707 | -121.30343 | 20085 ft | 351 kts | 320° |
| 2026-04-26 17:28 | 36.38625 | -121.32187 | 19608 ft | 348 kts | 320° |
| 2026-04-26 17:29 | 36.40523 | -121.34016 | 19124 ft | 344 kts | 320° |
| 2026-04-26 17:29 | 36.41142 | -121.34612 | 18963 ft | 343 kts | 320° |
| 2026-04-26 17:29 | 36.44251 | -121.37616 | 18172 ft | 338 kts | 320° |
| 2026-04-26 17:29 | 36.46091 | -121.39397 | 17710 ft | 338 kts | 320° |
| 2026-04-26 17:30 | 36.47966 | -121.41176 | 17233 ft | 341 kts | 322° |
| 2026-04-26 17:30 | 36.49943 | -121.42799 | 16753 ft | 340 kts | 328° |
| 2026-04-26 17:30 | 36.52059 | -121.44069 | 16279 ft | 339 kts | 335° |
| 2026-04-26 17:30 | 36.54281 | -121.45100 | 15800 ft | 336 kts | 339° |
| 2026-04-26 17:31 | 36.56488 | -121.46002 | 15336 ft | 334 kts | 340° |
| 2026-04-26 17:31 | 36.58682 | -121.46873 | 14864 ft | 331 kts | 340° |
| 2026-04-26 17:31 | 36.60858 | -121.47752 | 14392 ft | 328 kts | 340° |
| 2026-04-26 17:31 | 36.63012 | -121.48639 | 13921 ft | 326 kts | 339° |
| 2026-04-26 17:32 | 36.65140 | -121.49529 | 13462 ft | 323 kts | 339° |
| 2026-04-26 17:32 | 36.67256 | -121.50424 | 13004 ft | 320 kts | 339° |
| 2026-04-26 17:32 | 36.69358 | -121.51315 | 12543 ft | 318 kts | 339° |
| 2026-04-26 17:32 | 36.71449 | -121.52204 | 12089 ft | 316 kts | 339° |
| 2026-04-26 17:33 | 36.73521 | -121.53085 | 11631 ft | 313 kts | 339° |
| 2026-04-26 17:33 | 36.75581 | -121.53961 | 11180 ft | 314 kts | 339° |
| 2026-04-26 17:33 | 36.77679 | -121.54855 | 10724 ft | 318 kts | 339° |
| 2026-04-26 17:34 | 36.81772 | -121.56595 | 10283 ft | 298 kts | 339° |
| 2026-04-26 17:34 | 36.83688 | -121.57409 | 10180 ft | 285 kts | 339° |
| 2026-04-26 17:34 | 36.85529 | -121.58192 | 10045 ft | 275 kts | 339° |
| 2026-04-26 17:34 | 36.87317 | -121.58955 | 9726 ft | 272 kts | 339° |
| 2026-04-26 17:35 | 36.89103 | -121.59719 | 9347 ft | 272 kts | 340° |
| 2026-04-26 17:35 | 36.90886 | -121.60481 | 8990 ft | 270 kts | 340° |
| 2026-04-26 17:35 | 36.92657 | -121.61238 | 8645 ft | 269 kts | 340° |
| 2026-04-26 17:35 | 36.94425 | -121.61990 | 8294 ft | 268 kts | 340° |
| 2026-04-26 17:36 | 36.96180 | -121.62736 | 7954 ft | 266 kts | 340° |
| 2026-04-26 17:36 | 36.97921 | -121.63489 | 7596 ft | 265 kts | 339° |
| 2026-04-26 17:36 | 36.99663 | -121.64244 | 7248 ft | 264 kts | 340° |
| 2026-04-26 17:36 | 37.01398 | -121.64976 | 6923 ft | 263 kts | 340° |
| 2026-04-26 17:37 | 37.03153 | -121.65711 | 6569 ft | 263 kts | 340° |
| 2026-04-26 17:37 | 37.04861 | -121.66440 | 6233 ft | 262 kts | 340° |
| 2026-04-26 17:37 | 37.06583 | -121.67173 | 5890 ft | 261 kts | 340° |
| 2026-04-26 17:38 | 37.10034 | -121.68634 | 5215 ft | 259 kts | 340° |
| 2026-04-26 17:38 | 37.11740 | -121.69357 | 4877 ft | 259 kts | 340° |
| 2026-04-26 17:38 | 37.13440 | -121.70082 | 4537 ft | 258 kts | 340° |
| 2026-04-26 17:38 | 37.15133 | -121.70812 | 4231 ft | 256 kts | 339° |
| 2026-04-26 17:39 | 37.16736 | -121.71692 | 4179 ft | 248 kts | 327° |
| 2026-04-26 17:39 | 37.18103 | -121.72979 | 4187 ft | 250 kts | 317° |
| 2026-04-26 17:39 | 37.19375 | -121.74467 | 4183 ft | 250 kts | 314° |
| 2026-04-26 17:39 | 37.20637 | -121.75963 | 4180 ft | 249 kts | 315° |
| 2026-04-26 17:40 | 37.21949 | -121.77444 | 3944 ft | 254 kts | 317° |
| 2026-04-26 17:40 | 37.22386 | -121.77923 | 3821 ft | 253 kts | 317° |
| 2026-04-26 17:40 | 37.24556 | -121.80272 | 3204 ft | 231 kts | 317° |
| 2026-04-26 17:40 | 37.25709 | -121.81536 | 2850 ft | 209 kts | 317° |
| 2026-04-26 17:41 | 37.26773 | -121.82680 | 2341 ft | 200 kts | 319° |
| 2026-04-26 17:41 | 37.27820 | -121.83772 | 1917 ft | 188 kts | 318° |
| 2026-04-26 17:41 | 37.28765 | -121.84800 | 1562 ft | 175 kts | 316° |
| 2026-04-26 17:41 | 37.29625 | -121.85751 | 1412 ft | 159 kts | 317° |
| 2026-04-26 17:42 | 37.30461 | -121.86630 | 1175 ft | 153 kts | 319° |
| 2026-04-26 17:42 | 37.31273 | -121.87466 | 997 ft | 149 kts | 317° |
| 2026-04-26 17:42 | 37.32045 | -121.88344 | 816 ft | 149 kts | 316° |
| 2026-04-26 17:42 | 37.32806 | -121.89211 | 626 ft | 149 kts | 319° |
| 2026-04-26 17:43 | 37.33593 | -121.90065 | 429 ft | 148 kts | 318° |
| 2026-04-26 17:43 | 37.34374 | -121.90922 | 266 ft | 148 kts | 318° |
| 2026-04-26 17:43 | 37.35145 | -121.91767 | 125 ft | 148 kts | 319° |
| 2026-04-26 17:43 | 37.35911 | -121.92601 | 58 ft | 138 kts | 318° |
| 2026-04-26 17:44 | 37.36541 | -121.93291 | 49 ft | 85 kts | 319° |
| 2026-04-26 17:44 | 37.36830 | -121.93584 | 46 ft | 33 kts | 339° |
| 2026-04-26 17:44 | 37.36978 | -121.93484 | 45 ft | 24 kts | 50° |
| 2026-04-26 17:44 | 37.37067 | -121.93352 | 44 ft | 17 kts | 60° |
| 2026-04-26 17:45 | 37.37051 | -121.93269 | 44 ft | 9 kts | 137° |
| 2026-04-26 17:45 | 37.37002 | -121.93214 | 45 ft | 8 kts | 139° |
| 2026-04-26 17:45 | 37.36958 | -121.93166 | 46 ft | 7 kts | 139° |
| 2026-04-26 17:45 | 37.36946 | -121.93124 | 46 ft | 4 kts | 68° |
| 2026-04-26 17:46 | 37.36966 | -121.93092 | 44 ft | 4 kts | 48° |
| 2026-04-26 17:46 | 37.36972 | -121.93083 | 43 ft | 0 kts | 47° |